ADDS METAR Data INFO
IDs: Format: Raw Decoded Include TAF

Data at: 1315 UTC 11 Dec 2017

PASM 111256Z AUTO 35012KT 10SM FEW060 M06/M06 A2908 RMK AO2 SLP863 T10561061 FZRANO
PASM 111156Z AUTO 36011KT 10SM OVC060 M05/M06 A2910 RMK AO2 SLP869 60000 T10501056 11039 21056 56020 FZRANO
PASM 111056Z AUTO 01007KT 10SM BKN065 M04/M04 A2912 RMK AO2 SLP877 T10391044 FZRANO
PASM 110956Z AUTO 36009KT 10SM BKN055 BKN120 M04/M06 A2914 RMK AO2 SLP883 T10441056 FZRANO
PASM 110910Z AUTO 02007KT 10SM FEW009 SCT041 BKN060 M04/M05 A2916 RMK AO2 FZRANO
PASM 110856Z AUTO 01007KT 10SM SCT039 M04/M05 A2916 RMK AO2 SNE00 SLP890 P0000 60000 T10441050 56028 FZRANO
PASM 110831Z AUTO 03006KT 10SM SCT015 OVC041 M04/M04 A2917 RMK AO2 SNE00 P0000 FZRANO
PASM 110756Z AUTO 04010KT 9SM -SN OVC015 M04/M05 A2919 RMK AO2 SNB40 SLP900 P0000 T10441050 410441117 FZRANO
PASM 110726Z AUTO 05010KT 10SM BKN015 OVC037 M04/M05 A2920 RMK AO2 FZRANO
PASM 110656Z AUTO 03010KT 10SM SCT037 BKN045 OVC055 M05/M06 A2920 RMK AO2 SLP905 T10501056 FZRANO
PASM 110643Z AUTO 01009KT 10SM SCT013 BKN045 OVC055 M05/M06 A2920 RMK AO2 FZRANO
PASM 110556Z AUTO 03010KT 10SM OVC013 M06/M06 A2924 RMK AO2 SLP918 T10561061 11056 21078 58030 FZRANO
PASM 110456Z AUTO 03008KT 10SM OVC011 M06/M07 A2928 RMK AO2 SLP931 T10611067 FZRANO
PASM 110356Z AUTO 03010KT 10SM OVC011 M07/M07 A2930 RMK AO2 SLP938 T10671072 FZRANO
PASM 110328Z AUTO 02009KT 10SM OVC011 M07/M08 A2931 RMK AO2 FZRANO
PASM 110256Z AUTO 03009KT 10SM OVC009 M07/M08 A2933 RMK AO2 SLP950 T10721078 56030 FZRANO
PASM 110249Z AUTO 02009KT 10SM OVC009 M07/M08 A2933 RMK AO2 CIG 009V013 FZRANO
PASM 110242Z AUTO 02009KT 10SM OVC011 M07/M08 A2933 RMK AO2 CIG 008V013 FZRANO
PASM 110156Z AUTO 03009KT 10SM OVC008 M07/M08 A2936 RMK AO2 SLP959 T10721078 FZRANO
PASM 110056Z AUTO 03010KT 10SM OVC010 M07/M08 A2939 RMK AO2 SLP970 T10671078 FZRANO
PASM 102356Z AUTO 03007KT 10SM OVC010 M08/M08 A2942 RMK AO2 SLP980 T10781083 11072 21100 58024 FZRANO
PASM 102234Z AUTO 03007KT 10SM OVC014 M08/M08 A2945 RMK AO2 FZRANO
PASM 102156Z AUTO 03006KT 10SM FEW012 OVC021 M08/M09 A2947 RMK AO2 SLP996 T10831089 FZRANO
PASM 102148Z AUTO 03007KT 10SM SCT012 OVC021 M08/M09 A2947 RMK AO2 FZRANO
PASM 102140Z AUTO 03008KT 10SM BKN012 OVC021 M09/M09 A2948 RMK AO2 FZRANO
PASM 102110Z AUTO 02005KT 10SM BKN019 M09/M10 A2949 RMK AO2 FZRANO
PASM 102056Z AUTO 02005KT 10SM FEW012 M09/M11 A2949 RMK AO2 SLP004 T10941106 58007 FZRANO
PASM 102048Z AUTO 01007KT 10SM FEW012 SCT036 M09/M11 A2950 RMK AO2 FZRANO
PASM 102020Z AUTO 01008KT 10SM OVC014 M09/M11 A2950 RMK AO2 FZRANO
PASM 101956Z AUTO 02008KT 10SM OVC016 M10/M11 A2951 RMK AO2 SLP009 T11001111 FZRANO
PASM 101856Z AUTO 02011KT 10SM BKN020 OVC025 M09/M10 A2952 RMK AO2 SLP012 T10891100 FZRANO
PASM 101756Z AUTO 02010G15KT 10SM OVC023 M09/M09 A2951 RMK AO2 SLP011 T10891094 11089 21117 56012 FZRANO
PASM 101656Z AUTO 01014KT 10SM OVC019 M09/M10 A2952 RMK AO2 SLP014 T10891100 FZRANO
PASM 101556Z AUTO 01012G18KT 10SM OVC015 M09/M10 A2953 RMK AO2 SLP018 T10941100 FZRANO
PASM 101549Z AUTO 01011G17KT 10SM OVC015 M09/M11 A2953 RMK AO2 FZRANO
PASM 101456Z AUTO 01009KT 10SM BKN013 M11/M11 A2955 RMK AO2 SLP024 T11061111 56004 FZRANO
PASM 101454Z AUTO 02009KT 10SM BKN013 M11/M11 A2955 RMK AO2 FZRANO
PASM 101356Z AUTO 03008KT 10SM CLR M11/M12 A2955 RMK AO2 SLP025 T11061117 FZRANO
PASM 101256Z AUTO 36014KT 10SM CLR M11/M12 A2956 RMK AO2 SLP028 T11111122 FZRANO
PASM 101156Z AUTO 01008KT 10SM CLR M11/M12 A2958 RMK AO2 SLP034 T11111122 11106 21117 56013 FZRANO
PASM 101056Z AUTO 36008KT 10SM CLR M12/M13 A2959 RMK AO2 SLP039 T11171128 FZRANO
PASM 100956Z AUTO 01011KT 10SM CLR M11/M12 A2960 RMK AO2 SLP041 T11111117 FZRANO
PASM 100856Z AUTO 01009KT 10SM CLR M11/M12 A2962 RMK AO2 SLP047 T11061117 56009 FZRANO
PASM 100756Z AUTO 02008KT 10SM CLR M11/M12 A2962 RMK AO2 SLP047 T11111122 410721122 FZRANO
PASM 100718Z AUTO 03007KT 10SM SCT021 M11/M12 A2962 RMK AO2 FZRANO
PASM 100656Z AUTO 01009KT 10SM BKN021 M11/M12 A2963 RMK AO2 SLP050 T11111122 FZRANO
PASM 100556Z AUTO 01009KT 10SM CLR M12/M13 A2964 RMK AO2 SLP055 T11171128 11100 21122 56009 FZRANO
PASM 100456Z AUTO 02010KT 10SM CLR M11/M12 A2965 RMK AO2 SLP057 T11111122 FZRANO
PASM 100356Z AUTO 02010KT 10SM SCT021 M12/M12 A2966 RMK AO2 SLP061 T11171122 FZRANO
PASM 100256Z AUTO 03008KT 10SM CLR M12/M13 A2967 RMK AO2 SLP064 T11221133 58014 FZRANO
PASM 100156Z AUTO 03007KT 10SM FEW036 M11/M12 A2969 RMK AO2 SLP070 T11061117 FZRANO